aviador You're here:

KLRF Decoded Metar

JACKSONVILLE in AR, USA
Report Time2018-06-24 19:56:00
UTC Time2018-06-24 20:35:33
Flight Rules vfr VFR
Wind240° at 10 Gusting to 15 kt
W.Decomp.*RWY 25: 9.8 kt HW 1.9 kt LCW
W.Rank240° ranks 21
Current wind is above 240° avg. (5.8)
Visibility9999 m
Phenomena:N/A
Clouds:Few 040 Hf
Scattered 200 Hf
Expected CloudBase > 2,000 ft AGL from Temp-Dew spread
CeilingNone
Temp33°C (ISA +19)
Dew Point28°C (75% RH)
Heat Index45.7°C
QNH1012 hPa
Density Alt2,959 ft
Elevation312 ft
Report Wrong Elevation
Raw Report
KLRF 241956Z 24010G15KT 10SM FEW040 SCT200 33/28 A2987 RMK AO2A
SLPNO WND DATA ESTMD ALSTG ESTMD=

Extra information for KLRF:More info

Metar Taf Metar & Taf Last 4 Metars F.Rules Stats Wind Profile Meteogram Temp Stats Airport Information Weather charts Add Link Nearby VenuesMetar ALERT Operation Metar Decoded Social comments

AIRNAV info for KLRF